createdAt,value
2023-03-10T00:01:02.795Z,12.80
2023-03-10T00:03:27.187Z,12.80
2023-03-10T00:05:51.597Z,12.80
2023-03-10T00:08:16.089Z,12.70
2023-03-10T00:10:42.050Z,12.80
2023-03-10T00:13:06.829Z,12.80
2023-03-10T00:15:31.697Z,12.80
2023-03-10T00:17:56.240Z,12.70
2023-03-10T00:20:20.905Z,12.70
2023-03-10T00:22:45.416Z,12.70
2023-03-10T00:25:11.716Z,12.60
2023-03-10T00:27:38.533Z,12.70
2023-03-10T00:30:03.283Z,12.60
2023-03-10T00:32:28.038Z,12.50
2023-03-10T00:34:52.774Z,12.60
2023-03-10T00:37:19.630Z,12.60
2023-03-10T00:39:46.249Z,12.60
2023-03-10T00:42:10.886Z,12.60
2023-03-10T00:44:36.758Z,12.60
2023-03-10T00:47:01.127Z,12.50
2023-03-10T00:49:26.236Z,12.50
2023-03-10T00:51:50.655Z,12.50
2023-03-10T00:54:16.457Z,12.40
2023-03-10T00:56:42.093Z,12.30
2023-03-10T00:59:07.500Z,12.30
2023-03-10T01:01:35.851Z,12.10
2023-03-10T01:04:02.589Z,12.10
2023-03-10T01:06:28.917Z,12.00
2023-03-10T01:08:53.596Z,11.80
2023-03-10T01:11:19.025Z,11.70
2023-03-10T01:13:44.527Z,11.60
2023-03-10T01:16:09.386Z,11.50
2023-03-10T01:18:35.388Z,11.50
2023-03-10T01:21:00.590Z,11.30
2023-03-10T01:23:26.374Z,11.30
2023-03-10T01:25:51.193Z,11.20
2023-03-10T01:28:17.353Z,11.10
2023-03-10T01:30:42.089Z,11.10
2023-03-10T01:33:06.721Z,11.00
2023-03-10T01:35:33.182Z,11.00
2023-03-10T01:37:58.850Z,11.10
2023-03-10T01:40:23.437Z,11.20
2023-03-10T01:42:47.899Z,11.30
2023-03-10T01:45:51.119Z,11.40
2023-03-10T01:48:18.265Z,11.40
2023-03-10T01:50:45.903Z,11.50
2023-03-10T01:53:11.349Z,11.50
2023-03-10T01:55:41.361Z,11.40
2023-03-10T01:58:06.792Z,11.50
2023-03-10T02:00:31.574Z,11.50
2023-03-10T02:03:03.234Z,11.50
2023-03-10T02:05:30.635Z,11.40
2023-03-10T02:07:57.660Z,11.30
2023-03-10T02:10:22.317Z,11.40
2023-03-10T02:12:49.846Z,11.40
2023-03-10T02:15:14.829Z,11.30
2023-03-10T02:17:41.327Z,11.20
2023-03-10T02:20:23.378Z,11.10
2023-03-10T02:22:49.763Z,11.00
2023-03-10T02:25:30.028Z,10.90
2023-03-10T02:27:56.384Z,11.00
2023-03-10T02:30:25.251Z,11.00
2023-03-10T02:32:54.302Z,10.90
2023-03-10T02:35:20.221Z,10.90
2023-03-10T02:37:51.692Z,10.90
2023-03-10T02:40:42.539Z,10.80
2023-03-10T02:43:18.828Z,10.90
2023-03-10T02:45:47.848Z,10.90
2023-03-10T02:48:14.791Z,10.80
2023-03-10T02:50:42.019Z,10.60
2023-03-10T02:53:12.889Z,10.60
2023-03-10T02:55:37.533Z,10.50
2023-03-10T02:58:02.650Z,10.40
2023-03-10T03:00:28.994Z,10.40
2023-03-10T03:02:53.442Z,10.40
2023-03-10T03:05:18.652Z,10.30
2023-03-10T03:07:43.006Z,10.30
2023-03-10T03:10:08.736Z,10.30
2023-03-10T03:12:33.513Z,10.20
2023-03-10T03:14:58.094Z,10.30
2023-03-10T03:17:24.373Z,10.30
2023-03-10T03:19:48.958Z,10.30
2023-03-10T03:22:13.388Z,10.20
2023-03-10T03:24:37.900Z,10.20
2023-03-10T03:27:02.492Z,10.20
2023-03-10T03:29:27.231Z,10.10
2023-03-10T03:31:52.166Z,10.00
2023-03-10T03:34:22.371Z,9.90
2023-03-10T03:36:50.391Z,9.90
2023-03-10T03:39:20.376Z,9.90
2023-03-10T03:41:53.298Z,9.80
2023-03-10T03:44:22.245Z,9.80
2023-03-10T03:46:47.926Z,9.70
2023-03-10T03:49:13.059Z,9.60
2023-03-10T03:51:39.076Z,9.70
2023-03-10T03:54:04.307Z,9.50
2023-03-10T03:56:32.832Z,9.50
2023-03-10T03:58:59.376Z,9.50
2023-03-10T04:01:24.147Z,9.40
2023-03-10T04:03:52.553Z,9.50
2023-03-10T04:06:16.972Z,9.50
2023-03-10T04:08:43.731Z,9.50
2023-03-10T04:11:08.301Z,9.50
2023-03-10T04:13:35.203Z,9.40
2023-03-10T04:16:00.767Z,9.40
2023-03-10T04:18:30.561Z,9.40
2023-03-10T04:20:55.098Z,9.40
2023-03-10T04:23:20.781Z,9.30
2023-03-10T04:25:47.531Z,9.30
2023-03-10T04:28:13.561Z,9.30
2023-03-10T04:30:38.241Z,9.30
2023-03-10T04:33:03.250Z,9.40
2023-03-10T04:35:30.528Z,9.30
2023-03-10T04:37:58.479Z,9.30
2023-03-10T04:40:23.965Z,9.30
2023-03-10T04:42:51.025Z,9.30
2023-03-10T04:45:15.686Z,9.40
2023-03-10T04:47:42.641Z,9.50
2023-03-10T04:50:08.346Z,9.70
2023-03-10T04:52:33.092Z,9.70
2023-03-10T04:54:57.728Z,9.80
2023-03-10T04:57:24.581Z,10.10
2023-03-10T04:59:53.208Z,10.40
2023-03-10T05:02:19.141Z,10.60
2023-03-10T05:04:44.833Z,10.80
2023-03-10T05:07:09.327Z,10.80
2023-03-10T05:09:42.630Z,11.20
2023-03-10T05:12:07.924Z,11.50
2023-03-10T05:14:34.439Z,11.70
2023-03-10T05:17:00.397Z,12.00
2023-03-10T05:19:28.769Z,12.50
2023-03-10T05:21:55.244Z,13.20
2023-03-10T05:24:19.793Z,13.30
2023-03-10T05:26:45.584Z,13.30
2023-03-10T05:29:10.104Z,13.30
2023-03-10T05:31:42.790Z,13.50
2023-03-10T05:34:14.131Z,13.60
2023-03-10T05:36:39.048Z,13.20
2023-03-10T05:39:05.951Z,12.90
2023-03-10T05:41:34.210Z,12.60
2023-03-10T05:43:58.886Z,12.70
2023-03-10T05:46:23.981Z,12.40
2023-03-10T05:48:52.334Z,12.50
2023-03-10T05:51:18.296Z,12.80
2023-03-10T05:53:44.052Z,13.00
2023-03-10T05:56:16.245Z,13.20
2023-03-10T05:58:42.313Z,13.00
2023-03-10T06:01:08.691Z,13.10
2023-03-10T06:03:34.880Z,12.90
2023-03-10T06:06:00.114Z,12.50
2023-03-10T06:08:26.720Z,12.10
2023-03-10T06:10:51.354Z,11.90
2023-03-10T06:13:15.900Z,11.60
2023-03-10T06:15:40.542Z,11.50
2023-03-10T06:18:05.185Z,11.20
2023-03-10T06:20:29.535Z,11.20
2023-03-10T06:22:54.515Z,11.40
2023-03-10T06:25:20.603Z,11.40
2023-03-10T06:27:44.970Z,11.40
2023-03-10T06:30:10.334Z,11.60
2023-03-10T06:32:36.238Z,11.70
2023-03-10T06:35:01.098Z,11.80
2023-03-10T06:37:25.471Z,11.80
2023-03-10T06:39:49.951Z,12.10
2023-03-10T06:42:24.804Z,12.30
2023-03-10T06:44:52.382Z,12.60
2023-03-10T06:47:16.778Z,12.70
2023-03-10T06:49:41.304Z,12.70
2023-03-10T06:52:06.215Z,13.00
2023-03-10T06:54:30.763Z,13.30
2023-03-10T06:56:55.080Z,14.00
2023-03-10T06:59:23.908Z,14.30
2023-03-10T07:01:48.325Z,14.70
2023-03-10T07:04:13.216Z,15.10
2023-03-10T07:06:37.725Z,15.40
2023-03-10T07:09:02.244Z,15.30
2023-03-10T07:11:27.665Z,15.40
2023-03-10T07:13:54.700Z,15.70
2023-03-10T07:16:21.185Z,16.00
2023-03-10T07:18:45.854Z,16.20
2023-03-10T07:21:11.750Z,16.40
2023-03-10T07:23:36.169Z,16.40
2023-03-10T07:26:00.819Z,16.50
2023-03-10T07:28:25.792Z,16.30
2023-03-10T07:30:50.696Z,16.70
2023-03-10T07:33:17.233Z,16.80
2023-03-10T07:35:41.800Z,16.90
2023-03-10T07:38:06.575Z,17.10
2023-03-10T07:40:31.069Z,17.10
2023-03-10T07:42:56.398Z,17.40
2023-03-10T07:45:21.252Z,17.60
2023-03-10T07:47:45.817Z,17.40
2023-03-10T07:50:13.696Z,16.90
2023-03-10T07:52:38.927Z,16.80
2023-03-10T07:55:03.432Z,16.70
2023-03-10T07:57:30.763Z,16.60
2023-03-10T07:59:55.351Z,16.90
2023-03-10T08:02:20.095Z,17.20
2023-03-10T08:04:45.235Z,17.60
2023-03-10T08:07:11.315Z,17.70
2023-03-10T08:09:36.024Z,17.70
2023-03-10T08:12:01.439Z,18.10
2023-03-10T08:14:26.206Z,18.30
2023-03-10T08:16:50.656Z,18.70
2023-03-10T08:19:15.039Z,19.00
2023-03-10T08:21:40.141Z,19.30
2023-03-10T08:24:06.274Z,19.70
2023-03-10T08:26:30.725Z,20.00
2023-03-10T08:28:55.119Z,20.20
2023-03-10T08:31:23.149Z,20.30
2023-03-10T08:33:49.453Z,20.10
2023-03-10T08:36:16.665Z,20.20
2023-03-10T08:38:44.440Z,20.40
2023-03-10T08:41:17.131Z,20.70
2023-03-10T08:43:42.152Z,20.80
2023-03-10T08:46:08.878Z,20.50
2023-03-10T08:48:33.720Z,20.60
2023-03-10T08:50:58.987Z,20.50
2023-03-10T08:53:23.435Z,20.30
2023-03-10T08:55:48.680Z,20.20
2023-03-10T08:58:14.501Z,20.10
2023-03-10T09:00:38.946Z,20.10
2023-03-10T09:03:04.549Z,20.30
2023-03-10T09:05:29.637Z,20.40
2023-03-10T09:07:54.180Z,20.40
2023-03-10T09:10:18.597Z,20.60
2023-03-10T09:12:43.111Z,20.40
2023-03-10T09:15:10.124Z,20.50
2023-03-10T09:17:34.487Z,20.50
2023-03-10T09:19:59.552Z,20.10
2023-03-10T09:22:23.936Z,20.30
2023-03-10T09:24:48.305Z,20.30
2023-03-10T09:27:12.758Z,20.10
2023-03-10T09:29:43.115Z,20.10
2023-03-10T09:32:09.955Z,20.10
2023-03-10T09:34:34.392Z,19.60
2023-03-10T09:36:59.389Z,19.60
2023-03-10T09:39:23.716Z,19.80
2023-03-10T09:42:25.512Z,19.90
2023-03-10T09:45:08.958Z,20.10
2023-03-10T09:47:47.104Z,20.50
2023-03-10T09:50:31.062Z,20.80
2023-03-10T09:53:04.734Z,20.40
2023-03-10T09:55:31.260Z,20.30
2023-03-10T09:57:57.212Z,20.50
2023-03-10T10:00:25.283Z,20.50
2023-03-10T10:02:57.022Z,20.40
2023-03-10T10:05:26.079Z,20.40
2023-03-10T10:07:54.397Z,20.40
2023-03-10T10:10:21.383Z,20.10
2023-03-10T10:12:46.327Z,20.10
2023-03-10T10:15:17.320Z,20.00
2023-03-10T10:17:56.730Z,20.30
2023-03-10T10:20:33.351Z,20.40
2023-03-10T10:22:58.039Z,20.80
2023-03-10T10:25:24.784Z,20.80
2023-03-10T10:27:52.879Z,20.50
2023-03-10T10:30:33.446Z,20.00
2023-03-10T10:32:59.740Z,20.00
2023-03-10T10:35:27.642Z,19.90
2023-03-10T10:38:01.181Z,20.00
2023-03-10T10:40:27.913Z,19.90
2023-03-10T10:42:55.158Z,19.70
2023-03-10T10:45:26.918Z,19.70
2023-03-10T10:47:52.819Z,19.70
2023-03-10T10:50:23.129Z,19.70
2023-03-10T10:52:50.702Z,19.70
2023-03-10T10:55:29.109Z,19.80
2023-03-10T10:57:58.833Z,19.90
2023-03-10T11:00:28.452Z,20.00
2023-03-10T11:02:53.379Z,20.00
2023-03-10T11:05:19.882Z,20.00
2023-03-10T11:07:45.187Z,20.00
2023-03-10T11:10:15.065Z,20.10
2023-03-10T11:12:43.039Z,20.00
2023-03-10T11:15:20.998Z,20.20
2023-03-10T11:17:51.446Z,20.50
2023-03-10T11:20:25.913Z,20.40
2023-03-10T11:22:56.605Z,20.20
2023-03-10T11:25:30.938Z,20.30
2023-03-10T11:28:19.302Z,20.00
2023-03-10T11:30:53.276Z,19.90
2023-03-10T11:33:25.204Z,20.20
2023-03-10T11:35:52.196Z,20.30
2023-03-10T11:38:29.880Z,20.30
2023-03-10T11:40:59.246Z,20.30
2023-03-10T11:43:33.760Z,20.50
2023-03-10T11:46:03.017Z,20.50
2023-03-10T11:48:35.094Z,20.60
2023-03-10T11:51:01.612Z,20.60
2023-03-10T11:53:44.729Z,20.40
2023-03-10T11:56:15.013Z,20.30
2023-03-10T12:03:21.069Z,20.20
2023-03-10T12:05:50.315Z,20.30
2023-03-10T12:08:17.214Z,20.50
2023-03-10T12:10:45.528Z,20.50
2023-03-10T12:13:37.799Z,20.50
2023-03-10T12:16:04.989Z,20.60
2023-03-10T12:18:30.198Z,20.80
2023-03-10T12:21:20.001Z,21.00
2023-03-10T12:23:44.905Z,21.10
2023-03-10T12:26:09.353Z,21.00
2023-03-10T12:28:35.932Z,21.00
2023-03-10T12:31:02.477Z,21.00
2023-03-10T12:34:02.118Z,20.90
2023-03-10T12:36:39.605Z,20.80
2023-03-10T12:39:32.932Z,20.80
2023-03-10T12:41:58.069Z,20.90
2023-03-10T12:44:52.965Z,20.60
2023-03-10T12:47:45.104Z,20.50
2023-03-10T12:50:43.606Z,20.60
2023-03-10T12:53:27.739Z,20.60
2023-03-10T12:56:19.611Z,20.50
2023-03-10T12:58:48.912Z,20.50
2023-03-10T13:01:20.042Z,20.50
2023-03-10T13:03:48.174Z,20.50
2023-03-10T13:06:22.553Z,20.50
2023-03-10T13:08:48.983Z,20.50
2023-03-10T13:11:28.917Z,20.40
2023-03-10T13:13:59.132Z,20.40
2023-03-10T13:16:25.129Z,20.30
2023-03-10T13:18:50.794Z,20.40
2023-03-10T13:21:29.529Z,20.10
2023-03-10T13:23:54.400Z,19.90
2023-03-10T13:26:19.408Z,19.90
2023-03-10T13:28:53.228Z,20.00
2023-03-10T13:31:21.092Z,20.10
2023-03-10T13:33:53.167Z,20.10
2023-03-10T13:36:33.411Z,20.10
2023-03-10T13:38:57.845Z,20.20
2023-03-10T13:41:22.327Z,20.20
2023-03-10T13:43:48.617Z,20.20
2023-03-10T13:46:17.477Z,20.20
2023-03-10T13:48:44.068Z,20.30
2023-03-10T13:51:19.136Z,20.20
2023-03-10T13:53:43.876Z,20.10
2023-03-10T13:56:18.997Z,20.10
2023-03-10T13:58:44.751Z,20.00
2023-03-10T14:01:13.509Z,20.00
2023-03-10T14:03:38.579Z,20.00
2023-03-10T14:06:15.434Z,19.90
2023-03-10T14:08:39.856Z,19.90
2023-03-10T14:11:42.475Z,19.80
2023-03-10T14:14:08.104Z,19.80
2023-03-10T14:16:47.602Z,19.80
2023-03-10T14:19:13.506Z,19.70
2023-03-10T14:21:52.446Z,19.60
2023-03-10T14:24:24.478Z,19.50
2023-03-10T14:26:48.916Z,19.50
2023-03-10T14:29:16.546Z,19.50
2023-03-10T14:31:40.982Z,19.50
2023-03-10T14:34:05.838Z,19.40
2023-03-10T14:36:30.472Z,19.40
2023-03-10T14:38:56.231Z,19.30
2023-03-10T14:41:25.181Z,19.30
2023-03-10T14:43:49.672Z,19.10
2023-03-10T14:46:14.462Z,19.10
2023-03-10T14:48:41.979Z,18.90
2023-03-10T14:51:07.218Z,18.90
2023-03-10T14:53:33.652Z,18.90
2023-03-10T14:56:02.628Z,18.80
2023-03-10T14:58:31.123Z,18.80
2023-03-10T15:00:55.764Z,18.70
2023-03-10T15:03:20.308Z,18.70
2023-03-10T15:05:49.062Z,18.60
2023-03-10T15:08:15.919Z,18.60
2023-03-10T15:10:44.278Z,18.60
2023-03-10T15:13:13.485Z,18.50
2023-03-10T15:15:41.600Z,18.50
2023-03-10T15:18:06.372Z,18.40
2023-03-10T15:20:30.726Z,18.40
2023-03-10T15:22:55.194Z,18.30
2023-03-10T15:25:21.879Z,18.30
2023-03-10T15:27:48.397Z,18.20
2023-03-10T15:30:21.723Z,18.20
2023-03-10T15:32:46.528Z,18.20
2023-03-10T15:35:11.996Z,18.10
2023-03-10T15:37:36.485Z,18.20
2023-03-10T15:40:03.782Z,18.10
2023-03-10T15:42:28.428Z,18.10
2023-03-10T15:44:52.968Z,18.10
2023-03-10T15:47:18.917Z,18.10
2023-03-10T15:49:43.545Z,18.00
2023-03-10T15:52:08.393Z,18.00
2023-03-10T15:54:34.809Z,18.00
2023-03-10T15:56:59.442Z,18.00
2023-03-10T15:59:23.877Z,17.90
2023-03-10T16:01:48.435Z,17.80
2023-03-10T16:04:14.451Z,17.80
2023-03-10T16:06:39.027Z,17.80
2023-03-10T16:09:05.574Z,17.80
2023-03-10T16:11:30.840Z,17.80
2023-03-10T16:13:55.316Z,17.70
2023-03-10T16:16:23.400Z,17.60
2023-03-10T16:18:48.674Z,17.30
2023-03-10T16:21:17.941Z,17.20
2023-03-10T16:23:43.165Z,17.00
2023-03-10T16:26:11.505Z,16.90
2023-03-10T16:28:36.253Z,16.80
2023-03-10T16:31:02.762Z,16.70
2023-03-10T16:33:27.912Z,16.60
2023-03-10T16:35:52.581Z,16.50
2023-03-10T16:38:22.682Z,16.60
2023-03-10T16:40:51.500Z,16.70
2023-03-10T16:43:16.768Z,16.80
2023-03-10T16:45:41.671Z,16.80
2023-03-10T16:48:06.660Z,16.80
2023-03-10T16:50:35.578Z,16.70
2023-03-10T16:53:02.274Z,16.60
2023-03-10T16:55:28.009Z,16.50
2023-03-10T16:57:52.630Z,16.20
2023-03-10T17:00:21.976Z,16.20
2023-03-10T17:02:46.416Z,16.10
2023-03-10T17:05:12.654Z,16.00
2023-03-10T17:07:46.399Z,15.90
2023-03-10T17:10:14.243Z,15.70
2023-03-10T17:12:40.270Z,15.60
2023-03-10T17:15:05.490Z,15.60
2023-03-10T17:17:30.886Z,15.40
2023-03-10T17:19:55.304Z,15.30
2023-03-10T17:22:19.673Z,15.30
2023-03-10T17:24:44.336Z,15.20
2023-03-10T17:27:09.102Z,15.10
2023-03-10T17:29:34.981Z,15.00
2023-03-10T17:31:59.475Z,14.90
2023-03-10T17:34:24.026Z,14.80
2023-03-10T17:36:51.174Z,14.70
2023-03-10T17:39:19.321Z,14.70
2023-03-10T17:41:44.078Z,14.60
2023-03-10T17:44:08.557Z,14.40
2023-03-10T17:46:34.481Z,14.40
2023-03-10T17:49:00.169Z,14.40
2023-03-10T17:51:27.428Z,14.20
2023-03-10T17:53:53.475Z,14.10
2023-03-10T17:56:18.577Z,14.10
2023-03-10T17:58:43.584Z,14.00
2023-03-10T18:01:09.408Z,14.00
2023-03-10T18:03:35.757Z,13.90
2023-03-10T18:06:00.200Z,13.90
2023-03-10T18:08:25.826Z,13.90
2023-03-10T18:11:01.207Z,14.00
2023-03-10T18:13:25.621Z,14.00
2023-03-10T18:15:51.683Z,14.10
2023-03-10T18:18:16.164Z,14.10
2023-03-10T18:20:42.817Z,14.20
2023-03-10T18:23:07.350Z,14.20
2023-03-10T18:25:31.727Z,14.20
2023-03-10T18:27:56.216Z,14.10
2023-03-10T18:30:21.547Z,14.10
2023-03-10T18:32:46.215Z,14.10
2023-03-10T18:35:12.165Z,14.10
2023-03-10T18:37:38.316Z,14.10
2023-03-10T18:40:04.187Z,14.10
2023-03-10T18:42:30.260Z,14.00
2023-03-10T18:44:55.713Z,13.90
2023-03-10T18:47:20.650Z,13.90
2023-03-10T18:49:45.105Z,13.90
2023-03-10T18:52:09.761Z,13.60
2023-03-10T18:54:36.104Z,13.50
2023-03-10T18:57:01.976Z,13.40
2023-03-10T18:59:26.599Z,13.50
2023-03-10T19:01:51.392Z,13.60
2023-03-10T19:04:16.386Z,13.70
2023-03-10T19:06:41.279Z,13.70
2023-03-10T19:09:08.691Z,13.80
2023-03-10T19:11:38.314Z,13.80
2023-03-10T19:14:05.457Z,13.60
2023-03-10T19:16:30.344Z,13.50
2023-03-10T19:18:54.900Z,13.50
2023-03-10T19:21:21.938Z,13.60
2023-03-10T19:23:48.576Z,13.60
2023-03-10T19:26:13.771Z,13.40
2023-03-10T19:28:39.824Z,13.30
2023-03-10T19:31:09.869Z,13.30
2023-03-10T19:33:34.322Z,13.30
2023-03-10T19:36:03.330Z,13.30
2023-03-10T19:38:28.382Z,13.20
2023-03-10T19:40:53.243Z,13.20
2023-03-10T19:43:17.701Z,13.20
2023-03-10T19:45:46.336Z,13.20
2023-03-10T19:48:11.156Z,13.20
2023-03-10T19:50:35.797Z,13.20
2023-03-10T19:53:00.400Z,13.10
2023-03-10T19:55:26.660Z,13.10
2023-03-10T19:57:52.860Z,13.10
2023-03-10T20:00:20.748Z,13.10
2023-03-10T20:02:47.203Z,13.10
2023-03-10T20:05:14.250Z,13.10
2023-03-10T20:07:39.579Z,13.10
2023-03-10T20:10:05.008Z,13.10
2023-03-10T20:12:30.769Z,13.10
2023-03-10T20:14:58.734Z,13.10
2023-03-10T20:17:23.442Z,13.10
2023-03-10T20:19:49.386Z,13.00
2023-03-10T20:22:18.797Z,13.00
2023-03-10T20:24:44.607Z,13.00
2023-03-10T20:27:09.213Z,13.10
2023-03-10T20:29:33.827Z,13.10
2023-03-10T20:31:58.344Z,13.10
2023-03-10T20:34:22.977Z,13.00
2023-03-10T20:36:49.763Z,12.90
2023-03-10T20:39:14.308Z,12.80
2023-03-10T20:41:39.030Z,12.90
2023-03-10T20:44:06.588Z,12.80
2023-03-10T20:46:31.867Z,12.80
2023-03-10T20:48:56.346Z,12.90
2023-03-10T20:51:22.730Z,12.90
2023-03-10T20:53:49.340Z,13.00
2023-03-10T20:56:14.709Z,13.10
2023-03-10T20:58:39.638Z,13.10
2023-03-10T21:01:04.313Z,13.10
2023-03-10T21:03:28.873Z,13.20
2023-03-10T21:05:53.413Z,13.10
2023-03-10T21:08:18.178Z,13.20
2023-03-10T21:10:44.870Z,13.20
2023-03-10T21:13:09.612Z,13.20
2023-03-10T21:15:34.383Z,13.20
2023-03-10T21:17:59.025Z,13.10
2023-03-10T21:20:25.608Z,13.20
2023-03-10T21:22:50.941Z,13.10
2023-03-10T21:25:17.251Z,13.20
2023-03-10T21:27:44.345Z,13.10
2023-03-10T21:30:11.821Z,13.10
2023-03-10T21:32:36.404Z,13.10
2023-03-10T21:35:03.427Z,13.00
2023-03-10T21:37:28.302Z,12.90
2023-03-10T21:39:53.965Z,12.80
2023-03-10T21:42:18.342Z,12.80
2023-03-10T21:44:44.356Z,12.80
2023-03-10T21:47:08.765Z,12.90
2023-03-10T21:49:33.738Z,12.70
2023-03-10T21:51:58.169Z,12.60
2023-03-10T21:54:24.355Z,12.60
2023-03-10T21:56:48.950Z,12.60
2023-03-10T21:59:13.371Z,12.60
2023-03-10T22:01:39.336Z,12.60
2023-03-10T22:04:04.805Z,12.70
2023-03-10T22:06:29.271Z,12.70
2023-03-10T22:08:53.806Z,12.60
2023-03-10T22:11:18.299Z,12.60
2023-03-10T22:13:43.480Z,12.50
2023-03-10T22:16:10.667Z,12.50
2023-03-10T22:18:36.604Z,12.60
2023-03-10T22:21:01.336Z,12.50
2023-03-10T22:23:26.963Z,12.40
2023-03-10T22:25:51.367Z,12.40
2023-03-10T22:28:16.216Z,12.40
2023-03-10T22:30:41.507Z,12.30
2023-03-10T22:33:06.994Z,12.40
2023-03-10T22:35:32.923Z,12.40
2023-03-10T22:37:57.600Z,12.30
2023-03-10T22:40:24.154Z,12.40
2023-03-10T22:42:49.260Z,12.40
2023-03-10T22:45:18.748Z,12.40
2023-03-10T22:47:43.383Z,12.30
2023-03-10T22:50:08.653Z,12.30
2023-03-10T22:52:34.703Z,12.20
2023-03-10T22:55:00.610Z,12.20
2023-03-10T22:57:27.324Z,12.20
2023-03-10T22:59:51.958Z,12.10
2023-03-10T23:02:16.850Z,12.10
2023-03-10T23:04:41.229Z,12.10
2023-03-10T23:07:05.980Z,12.10
2023-03-10T23:09:32.180Z,12.00
2023-03-10T23:11:56.691Z,12.00
2023-03-10T23:14:21.449Z,12.00
2023-03-10T23:16:45.935Z,12.00
2023-03-10T23:19:10.364Z,12.00
2023-03-10T23:21:35.585Z,12.00
2023-03-10T23:24:00.188Z,12.00
2023-03-10T23:26:27.245Z,12.00
2023-03-10T23:28:51.792Z,12.00
2023-03-10T23:31:17.179Z,12.00
2023-03-10T23:33:41.657Z,12.10
2023-03-10T23:36:06.954Z,12.10
2023-03-10T23:38:31.324Z,12.10
2023-03-10T23:40:56.263Z,12.10
2023-03-10T23:43:22.498Z,12.10
2023-03-10T23:45:49.515Z,12.10
2023-03-10T23:48:17.216Z,12.10
2023-03-10T23:50:44.262Z,12.10
2023-03-10T23:53:09.971Z,12.10
2023-03-10T23:55:37.243Z,12.10
2023-03-10T23:58:02.539Z,12.10
